Time;durP1;ratioP1;P1;durP2;ratioP2;P2;SDS_P1;SDS_P2;PMS_P1;PMS_P2;Temp;Humidity;BMP_temperature;BMP_pressure;BME280_temperature;BME280_humidity;BME280_pressure;Samples;Min_cycle;Max_cycle;Signal;HPM_P1;HPM_P2
2021/10/29 00:01:03;;;;;;;;;10.25;8.75;;;;;20.69;42.67;100473.72;4995661;28;51025;-49
2021/10/29 00:03:28;;;;;;;;;8.25;6.50;;;;;20.68;42.75;100472.03;4994866;28;51886;-44
2021/10/29 00:05:54;;;;;;;;;13.25;8.00;;;;;20.68;43.07;100478.38;4995359;28;50961;-45
2021/10/29 00:08:19;;;;;;;;;9.50;7.00;;;;;20.68;42.76;100470.13;4995000;28;51023;-45
2021/10/29 00:10:45;;;;;;;;;7.00;7.00;;;;;20.68;43.18;100472.88;4995432;28;51090;-44
2021/10/29 00:13:10;;;;;;;;;7.50;7.25;;;;;20.67;42.78;100471.22;4994928;28;51918;-45
2021/10/29 00:15:38;;;;;;;;;7.75;7.75;;;;;20.69;43.16;100466.31;4995415;28;51230;-44
2021/10/29 00:18:03;;;;;;;;;11.75;10.00;;;;;20.68;42.94;100463.78;4995024;28;51245;-44
2021/10/29 00:20:29;;;;;;;;;6.75;5.50;;;;;20.68;43.07;100461.88;4995127;28;51063;-45
2021/10/29 00:22:54;;;;;;;;;7.25;7.25;;;;;20.67;43.10;100454.69;4976971;28;51345;-45
2021/10/29 00:25:20;;;;;;;;;9.50;7.75;;;;;20.67;42.67;100454.69;4997767;28;51083;-44
2021/10/29 00:27:45;;;;;;;;;7.00;7.00;;;;;20.67;42.90;100451.09;5014185;28;51137;-46
2021/10/29 00:30:11;;;;;;;;;6.00;6.00;;;;;20.67;42.83;100451.94;5000381;28;51075;-44
2021/10/29 00:32:37;;;;;;;;;8.00;6.25;;;;;20.68;42.63;100458.28;5017802;28;51897;-49
2021/10/29 00:35:03;;;;;;;;;6.00;5.25;;;;;20.68;43.02;100450.88;5017840;28;51073;-51
2021/10/29 00:37:30;;;;;;;;;7.50;7.00;;;;;20.68;43.03;100452.78;5018029;28;50956;-47
2021/10/29 00:39:56;;;;;;;;;6.00;5.50;;;;;20.67;42.71;100449.19;5018329;28;51085;-52
2021/10/29 00:42:21;;;;;;;;;6.75;5.75;;;;;20.67;42.85;100432.69;5018103;28;51070;-53
2021/10/29 00:44:47;;;;;;;;;7.00;6.50;;;;;20.68;43.08;100450.03;5017936;28;50952;-48
2021/10/29 00:47:13;;;;;;;;;8.00;6.00;;;;;20.68;43.12;100450.03;5017800;28;51135;-50
2021/10/29 00:49:38;;;;;;;;;7.25;5.25;;;;;20.67;43.13;100445.59;5018002;28;51100;-48
2021/10/29 00:52:03;;;;;;;;;7.50;6.50;;;;;20.67;42.77;100429.09;5017647;28;51072;-48
2021/10/29 00:54:29;;;;;;;;;6.25;5.25;;;;;20.66;43.09;100436.50;5017466;28;51034;-50
2021/10/29 00:56:55;;;;;;;;;7.75;7.25;;;;;20.66;42.97;100427.41;5017984;28;51208;-47
2021/10/29 00:59:21;;;;;;;;;10.75;8.25;;;;;20.66;42.96;100431.00;4999972;28;51102;-48
2021/10/29 01:01:47;;;;;;;;;8.75;7.00;;;;;20.67;42.89;100426.34;5017385;28;50984;-48
2021/10/29 01:04:16;;;;;;;;;9.00;6.50;;;;;20.65;43.26;100429.31;5017566;28;51461;-48
2021/10/29 01:06:43;;;;;;;;;7.00;6.00;;;;;20.65;43.15;100429.31;5017965;28;51115;-44
2021/10/29 01:09:08;;;;;;;;;6.25;5.00;;;;;20.66;42.86;100430.16;4999565;28;51212;-46
2021/10/29 01:11:34;;;;;;;;;10.75;6.75;;;;;20.65;42.89;100423.81;5017528;28;51486;-48
2021/10/29 01:13:59;;;;;;;;;8.00;7.00;;;;;20.65;42.99;100420.22;5017790;28;51186;-43
2021/10/29 01:16:25;;;;;;;;;7.50;7.50;;;;;20.65;43.15;100415.56;5017655;28;51117;-45
2021/10/29 01:18:50;;;;;;;;;6.75;6.00;;;;;20.65;42.68;100417.47;5017367;28;51087;-49
2021/10/29 01:21:17;;;;;;;;;9.75;9.50;;;;;20.65;43.41;100404.56;5017105;28;51733;-47
2021/10/29 01:23:42;;;;;;;;;6.75;5.50;;;;;20.64;43.11;100402.88;5017389;28;51416;-44
2021/10/29 01:26:14;;;;;;;;;8.00;6.00;;;;;20.64;42.74;100402.88;5014680;28;51057;-45
2021/10/29 01:28:40;;;;;;;;;6.00;5.25;;;;;20.63;42.99;100401.16;4997688;28;50943;-49
2021/10/29 01:31:06;;;;;;;;;6.75;5.00;;;;;20.64;43.06;100411.13;4997418;28;51693;-43
2021/10/29 01:33:34;;;;;;;;;6.25;6.00;;;;;20.63;42.76;100406.69;4997156;28;51262;-48
2021/10/29 01:36:00;;;;;;;;;4.50;4.00;;;;;20.63;42.93;100401.16;4996301;28;51176;-46
2021/10/29 01:38:34;;;;;;;;;8.50;7.50;;;;;20.63;42.73;100401.16;4997265;28;51293;-46
2021/10/29 01:41:00;;;;;;;;;5.50;5.50;;;;;20.63;42.91;100386.56;4997206;28;51231;-47
2021/10/29 01:43:27;;;;;;;;;10.75;7.25;;;;;20.62;42.94;100388.50;4997142;28;50945;-46
2021/10/29 01:45:53;;;;;;;;;6.00;5.00;;;;;20.62;42.93;100387.66;4997450;28;51188;-42
2021/10/29 01:48:19;;;;;;;;;6.25;4.25;;;;;20.62;42.91;100382.16;4997072;28;51033;-50
2021/10/29 01:50:44;;;;;;;;;6.25;5.50;;;;;20.61;42.96;100375.81;4996762;28;51040;-46
2021/10/29 01:53:10;;;;;;;;;5.00;5.00;;;;;20.61;43.26;100375.81;4996829;28;51008;-46
2021/10/29 01:55:35;;;;;;;;;6.75;6.00;;;;;20.61;42.96;100373.06;4996723;28;51018;-46
2021/10/29 01:58:00;;;;;;;;;9.25;7.25;;;;;20.60;43.07;100365.03;4997282;28;51138;-51
2021/10/29 02:00:26;;;;;;;;;6.75;5.00;;;;;20.61;43.14;100377.72;4996669;28;51135;-47
2021/10/29 02:02:51;;;;;;;;;5.50;5.25;;;;;20.58;42.76;100373.53;4996936;28;51097;-47
2021/10/29 02:05:17;;;;;;;;;9.75;5.50;;;;;20.60;43.01;100367.78;4997059;28;51107;-47
2021/10/29 02:07:42;;;;;;;;;4.25;4.25;;;;;20.58;42.94;100356.19;4996980;28;50909;-50
2021/10/29 02:10:08;;;;;;;;;6.50;4.50;;;;;20.58;42.84;100365.28;4996773;28;51880;-51
2021/10/29 02:12:34;;;;;;;;;3.50;3.50;;;;;20.57;43.09;100358.09;4996700;28;51087;-48
2021/10/29 02:14:59;;;;;;;;;7.25;5.25;;;;;20.58;43.27;100368.03;4997027;28;51051;-47
2021/10/29 02:17:25;;;;;;;;;5.75;5.00;;;;;20.58;42.84;100361.69;4997011;28;51413;-50
2021/10/29 02:19:52;;;;;;;;;4.75;4.75;;;;;20.58;42.86;100350.69;4996328;28;51741;-48
2021/10/29 02:22:17;;;;;;;;;6.75;5.75;;;;;20.58;42.87;100348.75;4996652;28;50957;-48
2021/10/29 02:24:42;;;;;;;;;5.25;5.25;;;;;20.57;42.94;100349.84;4996605;28;51116;-49
2021/10/29 02:27:08;;;;;;;;;6.25;6.25;;;;;20.57;43.34;100346.25;5007561;28;51027;-46
2021/10/29 02:29:35;;;;;;;;;5.50;5.00;;;;;20.57;43.10;100338.00;5016167;28;51181;-50
2021/10/29 02:32:00;;;;;;;;;6.00;6.00;;;;;20.56;43.02;100334.41;5016250;28;51321;-51
2021/10/29 02:34:25;;;;;;;;;8.00;6.00;;;;;20.56;43.18;100339.06;5016324;28;51056;-44
2021/10/29 02:36:51;;;;;;;;;5.00;4.75;;;;;20.55;43.26;100341.00;5016313;28;51168;-45
2021/10/29 02:39:16;;;;;;;;;4.25;4.25;;;;;20.55;43.14;100334.66;5015842;28;51083;-48
2021/10/29 02:41:42;;;;;;;;;5.00;3.75;;;;;20.55;42.79;100334.66;5016390;28;51141;-44
2021/10/29 02:44:07;;;;;;;;;7.00;6.75;;;;;20.54;43.33;100322.81;5016365;28;51076;-46
2021/10/29 02:46:33;;;;;;;;;4.00;4.00;;;;;20.54;42.73;100328.31;5016200;28;51027;-47
2021/10/29 02:48:58;;;;;;;;;5.75;5.75;;;;;20.54;43.06;100328.31;4997694;28;52031;-45
2021/10/29 02:51:25;;;;;;;;;5.50;4.75;;;;;20.52;43.20;100322.19;5016212;28;51051;-48
2021/10/29 02:53:51;;;;;;;;;6.75;5.00;;;;;20.54;43.02;100321.97;5015665;28;51024;-44
2021/10/29 02:56:16;;;;;;;;;6.75;6.75;;;;;20.52;43.33;100327.69;5016396;28;51452;-47
2021/10/29 02:58:42;;;;;;;;;7.25;5.00;;;;;20.53;43.17;100321.13;5016128;28;51833;-46
2021/10/29 03:01:07;;;;;;;;;6.00;6.00;;;;;20.53;43.25;100306.50;5015613;28;50893;-48
2021/10/29 03:03:33;;;;;;;;;6.75;6.75;;;;;20.53;43.33;100315.63;5016219;28;51413;-43
2021/10/29 03:05:58;;;;;;;;;3.25;3.00;;;;;20.53;43.22;100298.25;4998311;28;51309;-45
2021/10/29 03:08:24;;;;;;;;;5.00;5.00;;;;;20.52;42.90;100296.56;5015844;28;51077;-47
2021/10/29 03:10:50;;;;;;;;;5.50;5.25;;;;;20.51;43.02;100286.66;5015519;28;51086;-46
2021/10/29 03:13:16;;;;;;;;;5.25;5.25;;;;;20.50;42.93;100290.47;5016099;28;51127;-49
2021/10/29 03:15:43;;;;;;;;;6.00;6.00;;;;;20.51;43.02;100292.16;4998197;28;51309;-49
2021/10/29 03:18:08;;;;;;;;;5.00;4.00;;;;;20.50;43.06;100285.81;5015293;28;51992;-50
2021/10/29 03:20:34;;;;;;;;;4.25;4.25;;;;;20.51;42.87;100281.97;4997761;28;51090;-49
2021/10/29 03:22:59;;;;;;;;;5.00;4.50;;;;;20.51;42.89;100283.91;5015527;28;51106;-50
2021/10/29 03:25:25;;;;;;;;;5.25;4.75;;;;;20.50;43.12;100277.56;5016124;28;51428;-46
2021/10/29 03:27:51;;;;;;;;;5.00;3.25;;;;;20.51;42.92;100272.88;4998556;28;51148;-46
2021/10/29 03:30:16;;;;;;;;;8.00;4.00;;;;;20.49;43.25;100264.03;4995599;28;51073;-48
2021/10/29 03:32:41;;;;;;;;;5.00;4.50;;;;;20.49;42.93;100262.13;4995741;28;51089;-47
2021/10/29 03:35:07;;;;;;;;;6.75;5.00;;;;;20.48;42.92;100263.19;4995810;28;51103;-47
2021/10/29 03:40:14;;;;;;;;;4.00;4.00;;;;;20.47;42.98;100258.78;4995721;28;51090;-45
2021/10/29 03:42:48;;;;;;;;;6.50;5.25;;;;;20.46;43.43;100252.44;4995625;28;51012;-46
2021/10/29 03:45:15;;;;;;;;;4.75;3.50;;;;;20.46;43.28;100248.84;4995730;28;50964;-48
2021/10/29 03:47:50;;;;;;;;;5.00;5.00;;;;;20.46;43.46;100246.09;4995238;28;50959;-47
2021/10/29 03:52:51;;;;;;;;;4.75;4.75;;;;;20.45;43.16;100250.75;4995411;28;50991;-45
2021/10/29 03:55:16;;;;;;;;;4.50;4.50;;;;;20.45;43.02;100253.53;4995414;28;51280;-48
2021/10/29 03:57:42;;;;;;;;;3.75;3.75;;;;;20.44;43.13;100251.84;4995246;28;52606;-47
2021/10/29 04:00:08;;;;;;;;;4.50;4.00;;;;;20.44;43.30;100242.75;4997766;28;51072;-46
2021/10/29 04:02:33;;;;;;;;;4.00;4.00;;;;;20.45;42.96;100247.19;4999084;28;51103;-47
2021/10/29 04:04:58;;;;;;;;;6.00;5.00;;;;;20.43;42.87;100243.84;4999117;28;51022;-47
2021/10/29 04:07:24;;;;;;;;;5.50;4.50;;;;;20.43;43.17;100244.66;4998382;28;51123;-43
2021/10/29 04:09:49;;;;;;;;;4.00;4.00;;;;;20.42;43.22;100234.72;4998861;28;51129;-44
2021/10/29 04:12:16;;;;;;;;;5.50;4.00;;;;;20.43;43.13;100227.31;4998826;28;51048;-50
2021/10/29 04:14:43;;;;;;;;;5.00;5.00;;;;;20.42;43.20;100223.72;4999214;28;51610;-48
2021/10/29 04:17:09;;;;;;;;;6.00;6.00;;;;;20.42;43.23;100214.59;4998352;28;51900;-47
2021/10/29 04:19:34;;;;;;;;;4.00;4.00;;;;;20.42;43.21;100212.69;4998553;28;50999;-46
2021/10/29 04:22:00;;;;;;;;;5.25;5.25;;;;;20.41;43.08;100208.25;4998368;28;51140;-48
2021/10/29 04:24:26;;;;;;;;;5.50;4.00;;;;;20.41;42.96;100205.50;4998536;28;50989;-45
2021/10/29 04:26:52;;;;;;;;;3.50;3.50;;;;;20.42;42.99;100200.84;5007020;28;52076;-50
2021/10/29 04:29:18;;;;;;;;;5.25;4.75;;;;;20.40;42.84;100195.56;5018339;28;51051;-47
2021/10/29 04:31:49;;;;;;;;;4.50;3.75;;;;;20.41;42.98;100200.00;5018536;28;50981;-45
2021/10/29 04:34:22;;;;;;;;;5.50;4.75;;;;;20.40;42.81;100194.72;5018390;28;50901;-46
2021/10/29 04:36:49;;;;;;;;;5.25;4.25;;;;;20.40;43.52;100197.47;5017829;28;51966;-44
2021/10/29 04:39:15;;;;;;;;;4.25;3.00;;;;;20.40;43.30;100191.97;5018160;28;51879;-46
2021/10/29 04:41:41;;;;;;;;;4.50;3.50;;;;;20.40;43.33;100194.72;5018333;28;51166;-46
2021/10/29 04:44:09;;;;;;;;;8.00;5.25;;;;;20.39;42.87;100198.56;5018479;28;50894;-47
2021/10/29 04:46:35;;;;;;;;;4.75;4.00;;;;;20.38;43.01;100192.22;5018137;28;51021;-47
2021/10/29 04:49:00;;;;;;;;;4.25;4.25;;;;;20.38;43.10;100197.72;5017757;28;51034;-44
2021/10/29 04:51:27;;;;;;;;;3.50;3.50;;;;;20.37;43.20;100190.56;5018093;28;51101;-43
2021/10/29 04:53:53;;;;;;;;;5.50;4.75;;;;;20.37;43.14;100190.56;5018012;28;50937;-43
2021/10/29 04:56:18;;;;;;;;;3.25;3.25;;;;;20.37;43.05;100190.56;5017753;28;51724;-43
2021/10/29 04:58:43;;;;;;;;;4.25;4.00;;;;;20.37;43.07;100184.22;5017843;28;51167;-49
2021/10/29 05:01:09;;;;;;;;;5.50;4.00;;;;;20.36;43.06;100183.38;5017910;28;51098;-48
2021/10/29 05:03:34;;;;;;;;;3.50;3.25;;;;;20.37;42.77;100178.72;5017964;28;50985;-47
2021/10/29 05:05:59;;;;;;;;;4.00;4.00;;;;;20.36;43.13;100171.53;5017726;28;51783;-45
2021/10/29 05:08:25;;;;;;;;;4.00;3.75;;;;;20.35;43.20;100181.72;5017763;28;51135;-47
2021/10/29 05:10:50;;;;;;;;;5.75;5.75;;;;;20.36;42.90;100175.13;5017575;28;51099;-46
2021/10/29 05:13:16;;;;;;;;;5.00;5.00;;;;;20.35;43.27;100170.69;5018054;28;50952;-45
2021/10/29 05:15:42;;;;;;;;;3.00;3.00;;;;;20.36;42.75;100166.03;5017440;28;50983;-47
2021/10/29 05:18:13;;;;;;;;;3.75;3.75;;;;;20.35;42.96;100164.38;5017626;28;51144;-43
2021/10/29 05:20:38;;;;;;;;;2.25;2.25;;;;;20.35;42.75;100156.13;5017634;28;50944;-47
2021/10/29 05:23:04;;;;;;;;;5.25;3.00;;;;;20.34;43.16;100158.03;5017388;28;51326;-43
2021/10/29 05:25:29;;;;;;;;;5.00;4.75;;;;;20.35;43.30;100161.63;5017258;28;51002;-47
2021/10/29 05:27:54;;;;;;;;;4.00;4.00;;;;;20.33;43.11;100155.53;4999838;28;51125;-45
2021/10/29 05:30:20;;;;;;;;;5.00;3.00;;;;;20.33;42.94;100161.84;4997939;28;51047;-47
2021/10/29 05:32:46;;;;;;;;;3.50;3.00;;;;;20.34;43.26;100148.94;4997447;28;50978;-45
2021/10/29 05:35:11;;;;;;;;;6.00;5.50;;;;;20.32;43.29;100149.19;4997278;28;51945;-48
2021/10/29 05:37:37;;;;;;;;;3.75;3.75;;;;;20.32;43.24;100146.44;4997539;28;50962;-45
2021/10/29 05:40:05;;;;;;;;;4.00;4.00;;;;;20.32;42.95;100149.19;4997547;28;51051;-46
2021/10/29 05:42:30;;;;;;;;;6.00;4.00;;;;;20.33;42.70;100147.28;4997626;28;51225;-48
2021/10/29 05:44:56;;;;;;;;;5.00;3.75;;;;;20.32;42.97;100145.56;4997336;28;51087;-49
2021/10/29 05:47:21;;;;;;;;;5.50;4.50;;;;;20.33;43.09;100150.00;4997474;28;51210;-49
2021/10/29 05:49:47;;;;;;;;;5.25;3.50;;;;;20.32;43.19;100142.81;4997103;28;51159;-47
2021/10/29 05:52:19;;;;;;;;;7.00;5.00;;;;;20.32;43.06;100148.31;4997343;28;51180;-46
2021/10/29 05:57:19;;;;;;;;;4.00;4.00;;;;;20.32;43.04;100142.81;4997137;28;51021;-50
2021/10/29 05:59:44;;;;;;;;;4.50;3.50;;;;;20.32;43.29;100138.19;4997025;28;50964;-49
2021/10/29 06:02:09;;;;;;;;;3.75;3.75;;;;;20.31;43.19;100135.63;4997246;28;51104;-49
2021/10/29 06:04:35;;;;;;;;;4.00;4.00;;;;;20.31;43.03;100133.72;4996799;28;51095;-47
2021/10/29 06:07:00;;;;;;;;;5.50;4.75;;;;;20.32;42.89;100140.06;4996585;28;51000;-47
2021/10/29 06:09:26;;;;;;;;;6.00;6.00;;;;;20.31;42.90;100128.22;4996664;28;51283;-45
2021/10/29 06:11:52;;;;;;;;;5.75;4.00;;;;;20.32;43.26;100123.56;4997145;28;51108;-45
2021/10/29 06:14:17;;;;;;;;;5.00;4.00;;;;;20.31;43.18;100132.88;4996516;28;51223;-48
2021/10/29 06:16:43;;;;;;;;;3.00;3.00;;;;;20.30;43.10;100131.22;4997033;28;51073;-45
2021/10/29 06:19:09;;;;;;;;;6.00;4.75;;;;;20.31;43.19;100138.38;4996698;28;50996;-43
2021/10/29 06:21:40;;;;;;;;;2.75;2.75;;;;;20.30;42.88;100125.72;4996350;28;51135;-47
2021/10/29 06:24:11;;;;;;;;;4.00;3.00;;;;;20.30;42.73;100118.31;4996088;28;51890;-43
2021/10/29 06:26:45;;;;;;;;;6.00;4.75;;;;;20.30;43.17;100110.06;5002725;28;51308;-44
2021/10/29 06:29:10;;;;;;;;;6.00;6.00;;;;;20.30;43.18;100126.56;5016257;28;51126;-45
2021/10/29 06:31:35;;;;;;;;;4.00;3.75;;;;;20.30;43.31;100122.97;5016643;28;50967;-47
2021/10/29 06:34:01;;;;;;;;;3.75;3.50;;;;;20.30;43.03;100123.81;5016188;28;51571;-46
2021/10/29 06:36:28;;;;;;;;;3.25;3.25;;;;;20.29;42.89;100126.78;5016097;28;51054;-45
2021/10/29 06:38:53;;;;;;;;;5.75;5.75;;;;;20.30;43.08;100117.47;5016080;28;51058;-44
2021/10/29 06:41:18;;;;;;;;;6.50;6.00;;;;;20.29;43.20;100119.38;5016440;28;51056;-45
2021/10/29 06:43:51;;;;;;;;;5.25;5.25;;;;;20.28;42.90;100114.97;5015934;28;51031;-47
2021/10/29 06:49:10;;;;;;;;;5.75;5.00;;;;;20.30;43.04;100122.97;5015819;28;51095;-47
2021/10/29 06:59:48;;;;;;;;;6.25;5.50;;;;;20.29;43.23;100132.28;5015852;28;51105;-45
2021/10/29 07:40:16;;;;;;;;;4.25;4.25;;;;;20.26;43.41;100122.63;4995471;28;51075;-45
2021/10/29 07:42:51;;;;;;;;;6.00;4.00;;;;;20.27;43.09;100120.69;4995491;28;50915;-45
2021/10/29 07:45:17;;;;;;;;;3.00;2.50;;;;;20.26;42.93;100119.88;4995812;28;50968;-49
2021/10/29 07:47:43;;;;;;;;;4.25;4.25;;;;;20.27;42.89;100128.94;4994799;28;51042;-46
2021/10/29 07:50:10;;;;;;;;;4.50;3.75;;;;;20.26;43.29;100139.13;4995309;28;51487;-46
2021/10/29 07:52:37;;;;;;;;;4.50;4.00;;;;;20.26;43.37;100130.03;4995089;28;51031;-44
2021/10/29 07:55:05;;;;;;;;;4.75;4.75;;;;;20.27;43.06;100132.53;4995121;28;51402;-44
2021/10/29 07:57:31;;;;;;;;;5.00;3.50;;;;;20.28;43.29;100125.13;4995023;28;51004;-45
2021/10/29 07:59:56;;;;;;;;;3.00;3.00;;;;;20.26;43.31;100128.13;4995072;28;50976;-44
2021/10/29 08:02:23;;;;;;;;;5.25;5.00;;;;;20.27;43.13;100131.69;4995137;28;51088;-46
2021/10/29 08:04:48;;;;;;;;;4.00;3.25;;;;;20.27;43.40;100137.22;4995300;28;51159;-46
2021/10/29 08:07:14;;;;;;;;;4.25;3.00;;;;;20.27;43.21;100138.03;4995154;28;51082;-45
2021/10/29 08:09:41;;;;;;;;;4.75;4.00;;;;;20.27;43.34;100142.69;4994947;28;51094;-44
2021/10/29 08:12:07;;;;;;;;;4.00;4.00;;;;;20.27;43.24;100148.22;4994990;28;51165;-47
2021/10/29 08:14:32;;;;;;;;;5.75;4.25;;;;;20.27;43.44;100146.28;4995469;28;51144;-46
2021/10/29 08:16:58;;;;;;;;;4.75;4.25;;;;;20.27;43.13;100145.44;4994739;28;51631;-45
2021/10/29 08:19:30;;;;;;;;;3.00;3.00;;;;;20.27;43.34;100150.97;4994734;28;51026;-47
2021/10/29 08:21:56;;;;;;;;;3.50;3.50;;;;;20.27;43.18;100142.69;4994669;28;51094;-48
2021/10/29 08:24:22;;;;;;;;;4.75;4.00;;;;;20.28;43.40;100147.13;4995122;28;51040;-47
2021/10/29 08:26:48;;;;;;;;;4.25;4.25;;;;;20.28;43.32;100152.63;5002723;28;51865;-45
2021/10/29 08:29:14;;;;;;;;;4.00;4.00;;;;;20.28;43.23;100153.47;5014534;28;51023;-45
2021/10/29 08:31:39;;;;;;;;;3.50;3.50;;;;;20.28;43.03;100158.13;5014906;28;51020;-45
2021/10/29 08:34:05;;;;;;;;;4.75;3.75;;;;;20.27;43.33;100159.22;5014508;28;51293;-50
2021/10/29 08:36:33;;;;;;;;;4.50;4.00;;;;;20.28;43.14;100158.13;5014517;28;50993;-48
2021/10/29 08:38:58;;;;;;;;;5.25;4.50;;;;;20.28;43.24;100155.38;5014408;28;51367;-47
2021/10/29 08:41:26;;;;;;;;;4.50;3.00;;;;;20.28;43.45;100160.88;5014580;28;51061;-46
2021/10/29 08:43:52;;;;;;;;;6.25;6.25;;;;;20.27;43.59;100162.78;5014858;28;51070;-46
2021/10/29 08:46:18;;;;;;;;;4.75;4.75;;;;;20.28;42.87;100166.38;5017121;28;51838;-45
2021/10/29 08:48:43;;;;;;;;;3.25;3.25;;;;;20.28;43.29;100160.88;5017349;28;50967;-47
2021/10/29 08:51:09;;;;;;;;;5.50;4.25;;;;;20.27;43.30;100154.53;5017379;28;51086;-44
2021/10/29 08:53:34;;;;;;;;;3.75;3.75;;;;;20.27;43.31;100160.03;4999832;28;51013;-45
2021/10/29 08:56:03;;;;;;;;;7.25;3.50;;;;;20.28;43.48;100163.63;5016966;28;51559;-45
2021/10/29 08:58:31;;;;;;;;;5.50;5.00;;;;;20.26;43.12;100155.63;5017215;28;51110;-48
2021/10/29 09:01:03;;;;;;;;;7.00;5.00;;;;;20.27;43.37;100154.53;5017692;28;51450;-47
2021/10/29 09:03:46;;;;;;;;;5.00;5.00;;;;;20.27;43.17;100151.78;5017558;28;51073;-48
2021/10/29 09:06:43;;;;;;;;;3.25;3.25;;;;;20.28;43.09;100158.13;5017238;28;50939;-43
2021/10/29 09:09:28;;;;;;;;;5.00;5.00;;;;;20.28;43.36;100152.63;5017492;28;51358;-44
2021/10/29 09:15:53;;;;;;;;;3.25;3.25;;;;;20.28;43.49;100144.38;5017421;28;51264;-46
2021/10/29 09:33:57;;;;;;;;;4.75;4.75;;;;;20.27;43.19;100157.28;4997071;28;51133;-46
2021/10/29 09:36:31;;;;;;;;;3.50;3.50;;;;;20.26;43.12;100163.88;4997115;28;51182;-48
2021/10/29 09:39:08;;;;;;;;;4.50;4.50;;;;;20.27;43.67;100165.53;4996574;28;51965;-50
2021/10/29 09:41:38;;;;;;;;;5.00;3.00;;;;;20.27;43.41;100157.28;4996957;28;51261;-47
2021/10/29 09:44:05;;;;;;;;;4.25;4.00;;;;;20.29;43.58;100163.38;4997160;28;51140;-47
2021/10/29 09:46:42;;;;;;;;;5.75;5.75;;;;;20.28;43.29;100158.13;4997445;28;51162;-50
2021/10/29 09:49:14;;;;;;;;;3.25;3.25;;;;;20.28;43.29;100155.38;4996672;28;51226;-47
2021/10/29 09:52:19;;;;;;;;;4.25;4.00;;;;;20.28;43.14;100160.88;4996345;28;51396;-46
2021/10/29 09:54:50;;;;;;;;;3.00;3.00;;;;;20.30;43.45;100153.22;4996460;28;51031;-50
2021/10/29 09:57:21;;;;;;;;;3.00;3.00;;;;;20.29;43.35;100159.81;4995902;28;51105;-49
2021/10/29 09:59:51;;;;;;;;;3.50;3.25;;;;;20.28;43.15;100158.97;4996355;28;52011;-50
2021/10/29 10:02:20;;;;;;;;;4.00;3.00;;;;;20.30;43.23;100165.06;4996634;28;50979;-47
2021/10/29 10:04:49;;;;;;;;;3.00;3.00;;;;;20.31;43.43;100174.16;4996635;28;51142;-47
2021/10/29 10:07:18;;;;;;;;;3.00;3.00;;;;;20.31;42.97;100174.16;4996562;28;51195;-50
2021/10/29 10:09:44;;;;;;;;;2.75;2.75;;;;;20.30;43.39;100172.47;4996229;28;52689;-48
2021/10/29 10:12:10;;;;;;;;;6.25;3.25;;;;;20.30;43.21;100180.72;4996378;28;51328;-47
2021/10/29 10:14:38;;;;;;;;;4.00;4.00;;;;;20.29;43.42;100176.31;4996559;28;51085;-45
2021/10/29 10:17:03;;;;;;;;;3.25;3.00;;;;;20.30;43.26;100180.72;4979421;28;51272;-48
2021/10/29 10:19:29;;;;;;;;;4.25;4.00;;;;;20.30;43.50;100186.22;4996242;28;51987;-46
2021/10/29 10:21:56;;;;;;;;;2.75;2.50;;;;;20.29;43.48;100185.38;4996123;28;51060;-47
2021/10/29 10:24:31;;;;;;;;;3.00;3.00;;;;;20.30;43.06;100188.97;4996530;28;51047;-44
2021/10/29 10:30:06;;;;;;;;;5.25;3.00;;;;;20.30;43.46;100183.47;5015719;28;51388;-49
2021/10/29 10:41:08;;;;;;;;;3.75;3.00;;;;;20.30;43.75;100175.22;4935229;28;51024;-49
2021/10/29 10:43:55;;;;;;;;;2.25;2.25;;;;;20.31;43.58;100174.16;4990961;28;51326;-45
2021/10/29 10:46:21;;;;;;;;;4.00;4.00;;;;;20.30;43.10;100172.47;5015817;28;51015;-46
2021/10/29 10:51:26;;;;;;;;;4.00;3.50;;;;;20.31;43.48;100168.66;5015338;28;51805;-43
2021/10/29 10:53:57;;;;;;;;;4.50;4.00;;;;;20.29;43.75;100171.63;5015135;28;51410;-46
2021/10/29 10:59:26;;;;;;;;;4.00;3.75;;;;;20.31;43.48;100196.16;5015809;28;51006;-45
2021/10/29 11:10:11;;;;;;;;;4.50;3.50;;;;;20.29;43.70;100188.13;4934547;28;51240;-48
2021/10/29 11:12:40;;;;;;;;;4.00;2.75;;;;;20.31;43.53;100196.16;5002213;28;51679;-48
2021/10/29 11:15:21;;;;;;;;;5.50;4.75;;;;;20.30;43.55;100184.31;5015359;28;51021;-51
2021/10/29 11:17:59;;;;;;;;;4.75;3.50;;;;;20.30;43.42;100183.47;5015022;28;51203;-46
2021/10/29 11:20:51;;;;;;;;;3.00;2.25;;;;;20.31;43.79;100185.16;5015858;28;50989;-48
2021/10/29 11:23:32;;;;;;;;;4.00;4.00;;;;;20.29;43.91;100173.56;5014977;28;51102;-47
2021/10/29 11:26:02;;;;;;;;;2.50;2.50;;;;;20.31;43.42;100176.91;5013567;28;50921;-47
2021/10/29 11:28:36;;;;;;;;;6.25;5.00;;;;;20.30;43.49;100170.56;4995350;28;51104;-45
2021/10/29 11:31:11;;;;;;;;;3.00;3.00;;;;;20.30;43.98;100165.06;4995596;28;51248;-49
2021/10/29 11:33:45;;;;;;;;;4.00;3.50;;;;;20.30;43.49;100166.97;4976762;28;51254;-47
2021/10/29 11:36:13;;;;;;;;;3.75;3.00;;;;;20.30;43.45;100150.47;4995018;28;51422;-45
2021/10/29 11:38:41;;;;;;;;;3.25;3.25;;;;;20.29;43.75;100152.38;4995105;28;51090;-48
2021/10/29 11:41:10;;;;;;;;;4.00;4.00;;;;;20.30;43.52;100147.72;4977461;28;51057;-48
2021/10/29 11:43:36;;;;;;;;;4.00;4.00;;;;;20.28;43.69;100147.97;4994876;28;51785;-49
2021/10/29 11:46:05;;;;;;;;;5.00;3.25;;;;;20.29;43.75;100144.13;4994821;28;51035;-47
2021/10/29 11:48:45;;;;;;;;;4.00;3.25;;;;;20.30;44.08;100143.06;4995101;28;51143;-47
2021/10/29 11:51:13;;;;;;;;;3.25;3.25;;;;;20.31;43.96;100132.88;4995595;28;50960;-50
2021/10/29 11:53:54;;;;;;;;;3.50;3.50;;;;;20.30;43.58;100134.81;4994336;28;52009;-51
2021/10/29 12:07:20;;;;;;;;;5.50;5.00;;;;;20.31;43.78;100141.13;4994660;28;51383;-43
2021/10/29 12:10:09;;;;;;;;;4.00;4.00;;;;;20.31;44.06;100133.72;4995027;28;51191;-47
2021/10/29 12:12:36;;;;;;;;;6.00;4.00;;;;;20.30;43.75;100134.81;4994331;28;51287;-45
2021/10/29 12:15:15;;;;;;;;;3.75;3.75;;;;;20.32;44.08;100131.81;4994503;28;51365;-47
2021/10/29 12:17:52;;;;;;;;;3.25;3.25;;;;;20.31;44.05;100138.38;4994294;28;51210;-49
2021/10/29 12:20:26;;;;;;;;;5.00;5.00;;;;;20.31;43.69;100132.88;4995989;28;51077;-46
2021/10/29 12:23:00;;;;;;;;;5.25;5.25;;;;;20.30;43.60;100134.81;4997886;28;51420;-48
2021/10/29 12:27:59;;;;;;;;;3.75;3.50;;;;;20.31;43.98;100125.47;5014878;28;51159;-46
2021/10/29 12:30:49;;;;;;;;;5.00;4.00;;;;;20.32;43.57;100126.31;5017682;28;51056;-48
2021/10/29 13:04:05;;;;;;;;;4.75;4.75;;;;;20.33;44.01;100078.50;5016708;28;51171;-49
2021/10/29 13:06:49;;;;;;;;;6.75;3.75;;;;;20.32;44.24;100069.41;5016806;28;51300;-47
2021/10/29 13:09:22;;;;;;;;;4.25;4.00;;;;;20.32;44.12;100082.31;5016435;28;51794;-49
2021/10/29 13:12:03;;;;;;;;;3.50;3.50;;;;;20.32;44.28;100107.94;5017092;28;50975;-47
2021/10/29 13:14:32;;;;;;;;;6.25;4.25;;;;;20.32;43.83;100112.56;5016664;28;51099;-48
2021/10/29 13:17:00;;;;;;;;;6.25;4.75;;;;;20.31;44.24;100102.63;5016966;28;50927;-49
2021/10/29 13:27:19;;;;;;;;;4.25;4.25;;;;;20.32;44.12;100112.56;5007059;28;51127;-51
2021/10/29 14:02:23;;;;;;;;;6.75;4.00;;;;;20.32;44.04;100138.19;4996210;28;51076;-48
2021/10/29 14:32:31;;;;;;;;;4.75;3.75;;;;;20.31;44.58;100138.38;5015684;28;51107;-49
2021/10/29 14:34:55;;;;;;;;;3.50;2.25;;;;;20.31;44.41;100141.13;5014661;28;51746;-47
2021/10/29 15:05:51;;;;;;;;;7.00;5.75;;;;;20.30;44.32;100162.31;5014856;28;51850;-44
2021/10/29 15:41:34;;;;;;;;;4.00;4.00;;;;;20.27;44.62;100146.28;4994634;28;51275;-44
2021/10/29 15:51:45;;;;;;;;;3.00;2.00;;;;;20.27;44.56;100159.22;4993757;28;51338;-44
2021/10/29 15:54:11;;;;;;;;;4.75;4.25;;;;;20.28;44.78;100164.47;4993112;28;51130;-48
2021/10/29 16:17:36;;;;;;;;;5.75;4.75;;;;;20.27;44.81;100168.28;4994538;28;50889;-48
2021/10/29 16:20:03;;;;;;;;;4.00;4.00;;;;;20.27;44.78;100162.78;4993968;28;51750;-46
2021/10/29 16:22:33;;;;;;;;;5.25;5.25;;;;;20.28;44.88;100171.88;4993699;28;51389;-46
2021/10/29 16:25:09;;;;;;;;;6.50;5.00;;;;;20.27;44.73;100168.28;4994059;28;51181;-43
2021/10/29 16:27:42;;;;;;;;;3.25;3.25;;;;;20.27;44.85;100164.72;5008252;28;51235;-47
2021/10/29 16:30:08;;;;;;;;;5.75;4.75;;;;;20.28;44.83;100158.13;5013420;28;52727;-44
2021/10/29 16:33:18;;;;;;;;;4.75;4.00;;;;;20.28;45.07;100163.63;5013049;28;51395;-48